createdAt,value
2023-05-24T00:00:16.122Z,13.85
2023-05-24T00:03:07.170Z,14.33
2023-05-24T00:05:55.060Z,14.32
2023-05-24T00:08:42.790Z,14.39
2023-05-24T00:11:30.982Z,14.30
2023-05-24T00:14:18.701Z,14.34
2023-05-24T00:17:06.665Z,14.41
2023-05-24T00:19:55.720Z,14.27
2023-05-24T00:22:43.548Z,14.26
2023-05-24T00:25:31.299Z,14.02
2023-05-24T00:28:19.189Z,14.14
2023-05-24T00:31:08.373Z,14.13
2023-05-24T00:33:56.355Z,14.28
2023-05-24T00:36:45.483Z,14.22
2023-05-24T00:39:33.208Z,14.25
2023-05-24T00:42:20.891Z,14.32
2023-05-24T00:45:09.727Z,14.03
2023-05-24T00:47:57.577Z,13.97
2023-05-24T00:50:45.273Z,14.10
2023-05-24T00:53:36.687Z,14.33
2023-05-24T00:56:24.540Z,14.31
2023-05-24T00:59:12.529Z,14.02
2023-05-24T01:02:00.493Z,14.15
2023-05-24T01:04:49.149Z,13.93
2023-05-24T01:07:47.303Z,14.03
2023-05-24T01:10:47.786Z,14.06
2023-05-24T01:13:47.575Z,14.09
2023-05-24T01:16:47.106Z,14.97
2023-05-24T01:19:53.801Z,14.59
2023-05-24T01:23:07.360Z,14.03
2023-05-24T01:26:29.428Z,14.39
2023-05-24T01:29:19.339Z,14.09
2023-05-24T01:32:08.493Z,13.27
2023-05-24T01:34:56.167Z,14.32
2023-05-24T01:37:43.869Z,14.24
2023-05-24T01:40:31.711Z,14.74
2023-05-24T01:43:28.420Z,14.48
2023-05-24T01:46:23.924Z,14.06
2023-05-24T01:49:20.517Z,14.04
2023-05-24T01:52:13.999Z,13.71
2023-05-24T01:55:04.209Z,13.82
2023-05-24T01:57:52.877Z,13.71
2023-05-24T02:00:41.945Z,14.00
2023-05-24T02:03:32.375Z,13.91
2023-05-24T02:06:20.202Z,13.50
2023-05-24T02:09:07.882Z,14.05
2023-05-24T02:11:55.621Z,13.83
2023-05-24T02:14:43.321Z,13.75
2023-05-24T02:17:33.073Z,13.69
2023-05-24T02:20:22.696Z,13.64
2023-05-24T02:23:10.568Z,14.01
2023-05-24T02:25:58.370Z,13.65
2023-05-24T02:28:46.210Z,13.66
2023-05-24T02:31:34.232Z,13.60
2023-05-24T02:34:23.286Z,13.39
2023-05-24T02:37:15.080Z,13.70
2023-05-24T02:40:02.826Z,13.56
2023-05-24T02:42:50.689Z,13.27
2023-05-24T02:45:38.413Z,13.31
2023-05-24T02:48:26.075Z,13.31
2023-05-24T02:51:14.022Z,13.30
2023-05-24T02:54:03.140Z,13.33
2023-05-24T02:56:50.935Z,13.15
2023-05-24T02:59:38.627Z,13.24
2023-05-24T03:02:28.704Z,13.19
2023-05-24T03:05:16.707Z,13.00
2023-05-24T03:08:04.526Z,13.03
2023-05-24T03:10:53.631Z,13.01
2023-05-24T03:13:41.398Z,12.95
2023-05-24T03:16:29.574Z,13.07
2023-05-24T03:19:18.544Z,12.89
2023-05-24T03:22:06.307Z,12.74
2023-05-24T03:24:53.977Z,12.85
2023-05-24T03:27:43.127Z,12.85
2023-05-24T03:30:30.965Z,12.88
2023-05-24T03:33:18.712Z,12.82
2023-05-24T03:36:07.879Z,12.93
2023-05-24T03:38:58.322Z,12.93
2023-05-24T03:41:46.269Z,12.82
2023-05-24T03:44:35.316Z,12.89
2023-05-24T03:47:23.128Z,12.98
2023-05-24T03:50:11.818Z,13.07
2023-05-24T03:52:59.593Z,13.29
2023-05-24T03:55:47.624Z,13.14
2023-05-24T03:58:35.301Z,13.34
2023-05-24T04:01:33.401Z,13.52
2023-05-24T04:04:22.677Z,13.27
2023-05-24T04:07:12.068Z,13.16
2023-05-24T04:09:59.861Z,13.70
2023-05-24T04:12:47.758Z,13.65
2023-05-24T04:15:36.005Z,13.53
2023-05-24T04:18:25.358Z,13.76
2023-05-24T04:21:13.153Z,13.63
2023-05-24T04:24:01.764Z,13.90
2023-05-24T04:26:49.535Z,13.73
2023-05-24T04:29:37.383Z,13.70
2023-05-24T04:32:26.253Z,13.52
2023-05-24T04:35:15.653Z,13.57
2023-05-24T04:38:03.545Z,13.57
2023-05-24T04:40:51.271Z,13.67
2023-05-24T04:43:39.421Z,13.67
2023-05-24T04:46:27.373Z,14.04
2023-05-24T04:49:15.295Z,13.63
2023-05-24T04:52:04.644Z,14.09
2023-05-24T04:54:52.910Z,14.24
2023-05-24T04:57:40.770Z,14.34
2023-05-24T05:00:28.555Z,14.28
2023-05-24T05:03:16.480Z,14.30
2023-05-24T05:06:04.317Z,14.21
2023-05-24T05:08:53.528Z,14.53
2023-05-24T05:11:41.631Z,14.40
2023-05-24T05:14:29.262Z,14.44
2023-05-24T05:17:17.254Z,14.43
2023-05-24T05:20:07.165Z,14.45
2023-05-24T05:22:54.876Z,14.62
2023-05-24T05:25:44.013Z,14.59
2023-05-24T05:28:31.764Z,14.65
2023-05-24T05:31:19.553Z,14.66
2023-05-24T05:34:09.764Z,14.69
2023-05-24T05:36:57.484Z,14.79
2023-05-24T05:39:45.258Z,15.06
2023-05-24T05:42:34.360Z,15.15
2023-05-24T05:45:22.261Z,15.32
2023-05-24T05:48:10.081Z,15.25
2023-05-24T05:50:57.861Z,15.47
2023-05-24T05:53:47.004Z,15.57
2023-05-24T05:56:39.380Z,15.54
2023-05-24T05:59:28.634Z,15.59
2023-05-24T06:02:16.335Z,15.71
2023-05-24T06:05:04.224Z,15.95
2023-05-24T06:07:51.934Z,16.17
2023-05-24T06:10:39.680Z,16.15
2023-05-24T06:13:28.315Z,16.43
2023-05-24T06:16:18.458Z,16.52
2023-05-24T06:19:06.730Z,16.66
2023-05-24T06:21:54.724Z,16.67
2023-05-24T06:24:44.980Z,16.70
2023-05-24T06:27:32.729Z,16.71
2023-05-24T06:30:20.729Z,17.01
2023-05-24T06:33:09.742Z,17.07
2023-05-24T06:35:57.486Z,17.22
2023-05-24T06:38:45.449Z,17.21
2023-05-24T06:41:33.338Z,17.35
2023-05-24T06:44:25.120Z,17.46
2023-05-24T06:47:13.179Z,17.56
2023-05-24T06:50:04.135Z,17.64
2023-05-24T06:52:51.838Z,17.77
2023-05-24T06:55:39.627Z,17.74
2023-05-24T06:58:27.308Z,17.92
2023-05-24T07:01:15.485Z,17.96
2023-05-24T07:04:03.214Z,18.11
2023-05-24T07:06:53.133Z,18.14
2023-05-24T07:09:42.274Z,18.27
2023-05-24T07:12:30.054Z,18.42
2023-05-24T07:15:17.851Z,18.31
2023-05-24T07:18:05.854Z,18.55
2023-05-24T07:20:55.028Z,18.88
2023-05-24T07:23:44.261Z,18.70
2023-05-24T07:26:32.043Z,18.61
2023-05-24T07:29:19.765Z,18.73
2023-05-24T07:32:07.913Z,18.93
2023-05-24T07:34:56.019Z,19.05
2023-05-24T07:37:43.752Z,19.15
2023-05-24T07:40:32.852Z,18.76
2023-05-24T07:43:20.618Z,19.26
2023-05-24T07:46:08.343Z,19.41
2023-05-24T07:48:56.289Z,19.41
2023-05-24T07:51:44.157Z,19.42
2023-05-24T07:54:31.840Z,19.50
2023-05-24T07:57:21.156Z,19.54
2023-05-24T08:00:14.639Z,19.49
2023-05-24T08:03:03.354Z,19.65
2023-05-24T08:05:51.603Z,19.67
2023-05-24T08:08:40.310Z,19.69
2023-05-24T08:11:28.047Z,19.86
2023-05-24T08:14:17.221Z,19.92
2023-05-24T08:17:05.303Z,19.91
2023-05-24T08:19:52.974Z,19.81
2023-05-24T08:22:41.031Z,19.92
2023-05-24T08:25:28.757Z,19.94
2023-05-24T08:28:17.110Z,20.17
2023-05-24T08:31:06.376Z,20.15
2023-05-24T08:33:55.081Z,20.05
2023-05-24T08:36:44.009Z,20.29
2023-05-24T08:39:33.632Z,20.33
2023-05-24T08:42:22.636Z,20.25
2023-05-24T08:45:13.286Z,20.11
2023-05-24T08:48:03.634Z,20.37
2023-05-24T08:50:51.710Z,20.43
2023-05-24T08:53:42.090Z,20.40
2023-05-24T08:56:30.069Z,20.42
2023-05-24T08:59:18.211Z,20.60
2023-05-24T09:02:06.788Z,20.57
2023-05-24T09:04:57.252Z,20.72
2023-05-24T09:07:46.685Z,20.73
2023-05-24T09:10:49.588Z,20.96
2023-05-24T09:13:42.640Z,20.88
2023-05-24T09:16:30.661Z,20.81
2023-05-24T09:19:18.776Z,20.88
2023-05-24T09:22:08.182Z,20.46
2023-05-24T09:24:59.818Z,20.89
2023-05-24T09:27:51.761Z,20.87
2023-05-24T09:30:39.444Z,20.99
2023-05-24T09:33:31.054Z,20.89
2023-05-24T09:36:18.784Z,21.15
2023-05-24T09:39:11.813Z,21.32
2023-05-24T09:41:59.524Z,21.56
2023-05-24T09:44:47.399Z,21.61
2023-05-24T09:47:36.277Z,21.47
2023-05-24T09:50:23.996Z,21.63
2023-05-24T09:53:11.766Z,21.63
2023-05-24T09:56:01.909Z,21.67
2023-05-24T09:58:50.027Z,22.02
2023-05-24T10:01:38.319Z,21.87
2023-05-24T10:04:34.340Z,21.87
2023-05-24T10:07:22.638Z,21.99
2023-05-24T10:10:11.934Z,21.79
2023-05-24T10:13:02.675Z,21.77
2023-05-24T10:15:50.492Z,21.90
2023-05-24T10:18:38.409Z,22.12
2023-05-24T10:21:27.778Z,22.25
2023-05-24T10:24:20.482Z,22.43
2023-05-24T10:27:14.173Z,22.51
2023-05-24T10:30:14.253Z,22.43
2023-05-24T10:33:04.992Z,22.40
2023-05-24T10:35:53.951Z,22.50
2023-05-24T10:38:42.220Z,22.38
2023-05-24T10:41:30.461Z,22.24
2023-05-24T10:44:20.487Z,21.99
2023-05-24T10:47:14.049Z,22.41
2023-05-24T10:50:18.684Z,22.42
2023-05-24T10:53:13.851Z,22.62
2023-05-24T10:56:04.228Z,22.59
2023-05-24T10:59:02.447Z,22.70
2023-05-24T11:01:57.657Z,22.46
2023-05-24T11:04:49.583Z,22.64
2023-05-24T11:07:43.095Z,22.68
2023-05-24T11:10:34.356Z,22.74
2023-05-24T11:13:22.254Z,22.88
2023-05-24T11:16:10.629Z,22.88
2023-05-24T11:18:58.394Z,22.75
2023-05-24T11:21:49.163Z,22.52
2023-05-24T11:24:37.115Z,23.06
2023-05-24T11:27:25.679Z,23.00
2023-05-24T11:30:13.967Z,22.91
2023-05-24T11:33:02.830Z,22.89
2023-05-24T11:35:52.175Z,23.01
2023-05-24T11:38:41.431Z,22.87
2023-05-24T11:41:29.878Z,23.07
2023-05-24T11:44:20.075Z,23.07
2023-05-24T11:47:08.953Z,23.06
2023-05-24T11:49:56.686Z,23.03
2023-05-24T11:52:44.381Z,22.84
2023-05-24T11:55:33.540Z,22.98
2023-05-24T11:58:25.138Z,22.61
2023-05-24T12:01:25.146Z,22.89
2023-05-24T12:04:13.446Z,22.90
2023-05-24T12:07:01.720Z,23.06
2023-05-24T12:09:49.444Z,22.95
2023-05-24T12:12:46.238Z,22.87
2023-05-24T12:15:36.771Z,22.99
2023-05-24T12:18:26.615Z,23.29
2023-05-24T12:21:14.336Z,23.32
2023-05-24T12:24:12.550Z,23.23
2023-05-24T12:27:03.283Z,22.77
2023-05-24T12:29:52.550Z,23.10
2023-05-24T12:32:40.849Z,22.73
2023-05-24T12:35:28.614Z,22.22
2023-05-24T12:38:23.020Z,21.72
2023-05-24T12:41:13.519Z,21.86
2023-05-24T12:44:01.776Z,22.08
2023-05-24T12:46:53.165Z,21.63
2023-05-24T12:49:40.918Z,21.67
2023-05-24T12:52:28.586Z,21.61
2023-05-24T12:55:16.658Z,21.55
2023-05-24T12:58:06.476Z,21.55
2023-05-24T13:00:54.443Z,21.37
2023-05-24T13:03:43.809Z,21.33
2023-05-24T13:06:31.659Z,21.43
2023-05-24T13:09:21.649Z,21.22
2023-05-24T13:12:10.840Z,21.28
2023-05-24T13:14:58.623Z,21.00
2023-05-24T13:17:47.545Z,21.48
2023-05-24T13:20:36.731Z,21.56
2023-05-24T13:23:24.670Z,21.64
2023-05-24T13:26:13.108Z,21.70
2023-05-24T13:31:51.829Z,20.51
2023-05-24T13:34:39.564Z,20.65
2023-05-24T13:37:28.966Z,20.45
2023-05-24T13:40:16.660Z,20.60
2023-05-24T13:43:04.610Z,19.82
2023-05-24T13:45:52.483Z,19.60
2023-05-24T13:48:40.323Z,19.27
2023-05-24T13:51:28.225Z,19.61
2023-05-24T13:54:17.625Z,19.96
2023-05-24T13:57:06.751Z,19.57
2023-05-24T13:59:54.436Z,20.07
2023-05-24T14:02:43.355Z,20.70
2023-05-24T14:05:31.368Z,20.88
2023-05-24T14:08:19.207Z,20.06
2023-05-24T14:11:08.362Z,20.10
2023-05-24T14:14:47.592Z,20.74
2023-05-24T14:17:04.058Z,19.75
2023-05-24T14:19:51.849Z,19.54
2023-05-24T14:22:39.679Z,20.07
2023-05-24T14:25:27.388Z,20.50
2023-05-24T14:28:16.494Z,20.43
2023-05-24T14:31:06.144Z,20.10
2023-05-24T14:33:53.902Z,20.53
2023-05-24T14:36:41.930Z,20.70
2023-05-24T14:39:29.966Z,21.09
2023-05-24T14:42:17.745Z,21.23
2023-05-24T14:45:08.173Z,21.42
2023-05-24T14:47:55.880Z,21.24
2023-05-24T14:50:43.804Z,21.02
2023-05-24T14:53:31.464Z,21.30
2023-05-24T14:56:19.268Z,20.92
2023-05-24T14:59:06.959Z,21.53
2023-05-24T15:01:56.362Z,21.41
2023-05-24T15:04:44.038Z,21.53
2023-05-24T15:07:31.903Z,21.34
2023-05-24T15:10:19.612Z,21.47
2023-05-24T15:13:08.222Z,21.52
2023-05-24T15:15:57.765Z,21.59
2023-05-24T15:18:46.941Z,21.61
2023-05-24T15:21:34.561Z,21.73
2023-05-24T15:24:22.280Z,21.55
2023-05-24T15:27:10.753Z,21.67
2023-05-24T15:29:59.186Z,21.68
2023-05-24T15:32:46.981Z,21.70
2023-05-24T15:35:36.442Z,21.70
2023-05-24T15:38:24.734Z,21.79
2023-05-24T15:41:12.525Z,21.82
2023-05-24T15:44:00.982Z,21.53
2023-05-24T15:46:48.785Z,21.25
2023-05-24T15:49:36.778Z,21.56
2023-05-24T15:52:26.202Z,21.41
2023-05-24T15:55:14.057Z,21.47
2023-05-24T15:58:01.767Z,21.24
2023-05-24T16:00:51.118Z,21.32
2023-05-24T16:03:38.968Z,21.25
2023-05-24T16:06:26.796Z,21.19
2023-05-24T16:09:16.151Z,21.13
2023-05-24T16:12:04.005Z,21.26
2023-05-24T16:14:52.265Z,21.20
2023-05-24T16:17:40.036Z,20.95
2023-05-24T16:20:27.841Z,21.39
2023-05-24T16:23:15.580Z,21.31
2023-05-24T16:26:04.726Z,21.49
2023-05-24T16:28:52.401Z,20.95
2023-05-24T16:31:40.220Z,21.55
2023-05-24T16:34:27.938Z,21.31
2023-05-24T16:37:15.801Z,21.76
2023-05-24T16:40:03.873Z,22.09
2023-05-24T16:42:54.466Z,22.46
2023-05-24T16:45:42.230Z,22.00
2023-05-24T16:48:31.582Z,22.61
2023-05-24T16:51:19.546Z,22.55
2023-05-24T16:54:08.966Z,21.92
2023-05-24T16:56:56.813Z,22.60
2023-05-24T16:59:45.928Z,22.42
2023-05-24T17:02:34.437Z,22.80
2023-05-24T17:05:22.268Z,21.90
2023-05-24T17:08:10.030Z,21.84
2023-05-24T17:10:58.984Z,21.47
2023-05-24T17:13:47.296Z,21.11
2023-05-24T17:16:36.945Z,20.88
2023-05-24T17:19:25.386Z,20.52
2023-05-24T17:22:13.082Z,20.60
2023-05-24T17:25:00.801Z,21.13
2023-05-24T17:27:48.581Z,21.03
2023-05-24T17:30:36.689Z,21.99
2023-05-24T17:33:27.307Z,21.89
2023-05-24T17:36:15.107Z,21.19
2023-05-24T17:39:04.794Z,21.10
2023-05-24T17:41:52.550Z,20.46
2023-05-24T17:44:40.566Z,20.53
2023-05-24T17:47:28.981Z,20.88
2023-05-24T17:50:18.693Z,21.21
2023-05-24T17:53:18.986Z,20.67
2023-05-24T17:56:13.024Z,20.57
2023-05-24T17:59:03.080Z,20.46
2023-05-24T18:01:51.185Z,20.99
2023-05-24T18:04:39.546Z,20.20
2023-05-24T18:07:30.698Z,19.65
2023-05-24T18:10:19.605Z,20.22
2023-05-24T18:13:11.812Z,20.06
2023-05-24T18:16:11.608Z,19.89
2023-05-24T18:19:00.784Z,19.53
2023-05-24T18:21:48.888Z,19.42
2023-05-24T18:24:37.965Z,20.21
2023-05-24T18:27:26.794Z,20.97
2023-05-24T18:30:15.167Z,20.73
2023-05-24T18:33:07.812Z,19.88
2023-05-24T18:35:56.330Z,19.91
2023-05-24T18:38:47.264Z,19.76
2023-05-24T18:41:36.715Z,19.45
2023-05-24T18:44:24.434Z,19.19
2023-05-24T18:47:12.369Z,19.25
2023-05-24T18:50:00.501Z,19.97
2023-05-24T18:52:48.241Z,19.66
2023-05-24T18:55:35.942Z,19.82
2023-05-24T18:58:25.034Z,19.62
2023-05-24T19:01:13.676Z,19.79
2023-05-24T19:04:01.401Z,18.70
2023-05-24T19:06:49.292Z,19.94
2023-05-24T19:09:36.981Z,19.28
2023-05-24T19:12:25.501Z,18.82
2023-05-24T19:15:14.740Z,18.76
2023-05-24T19:18:02.434Z,18.85
2023-05-24T19:20:50.407Z,18.42
2023-05-24T19:23:38.158Z,18.03
2023-05-24T19:26:26.742Z,18.44
2023-05-24T19:29:14.873Z,18.21
2023-05-24T19:32:04.187Z,17.80
2023-05-24T19:34:52.234Z,19.19
2023-05-24T19:37:40.026Z,19.11
2023-05-24T19:40:27.917Z,19.62
2023-05-24T19:43:15.579Z,19.49
2023-05-24T19:46:05.733Z,18.31
2023-05-24T19:48:55.000Z,18.14
2023-05-24T19:51:42.621Z,17.88
2023-05-24T19:54:30.334Z,17.77
2023-05-24T19:57:18.159Z,17.61
2023-05-24T20:00:07.206Z,18.18
2023-05-24T20:02:54.904Z,17.58
2023-05-24T20:05:46.973Z,17.22
2023-05-24T20:08:34.654Z,17.17
2023-05-24T20:11:22.366Z,17.70
2023-05-24T20:14:10.140Z,17.34
2023-05-24T20:16:57.940Z,17.84
2023-05-24T20:19:46.583Z,17.62
2023-05-24T20:22:35.562Z,17.16
2023-05-24T20:25:23.326Z,16.88
2023-05-24T20:28:25.752Z,17.29
2023-05-24T20:31:17.923Z,17.79
2023-05-24T20:34:05.859Z,17.46
2023-05-24T20:36:53.958Z,17.19
2023-05-24T20:39:43.046Z,17.29
2023-05-24T20:42:31.872Z,17.12
2023-05-24T20:45:20.152Z,17.15
2023-05-24T20:48:08.398Z,17.19
2023-05-24T20:50:56.120Z,16.81
2023-05-24T20:53:45.720Z,16.77
2023-05-24T20:56:35.023Z,16.68
2023-05-24T20:59:22.717Z,16.01
2023-05-24T21:02:10.673Z,16.17
2023-05-24T21:04:58.613Z,16.44
2023-05-24T21:07:46.501Z,16.47
2023-05-24T21:10:34.334Z,16.41
2023-05-24T21:13:25.558Z,16.33
2023-05-24T21:16:13.673Z,16.03
2023-05-24T21:19:02.025Z,16.33
2023-05-24T21:21:49.862Z,16.10
2023-05-24T21:24:37.542Z,16.42
2023-05-24T21:27:26.441Z,16.67
2023-05-24T21:30:16.466Z,15.95
2023-05-24T21:33:04.318Z,15.85
2023-05-24T21:35:52.390Z,15.98
2023-05-24T21:38:40.092Z,15.92
2023-05-24T21:41:28.691Z,16.01
2023-05-24T21:44:16.494Z,15.90
2023-05-24T21:47:06.205Z,15.77
2023-05-24T21:49:54.967Z,15.77
2023-05-24T21:52:42.642Z,15.79
2023-05-24T21:55:31.145Z,15.56
2023-05-24T21:58:18.976Z,15.56
2023-05-24T22:01:08.658Z,15.99
2023-05-24T22:03:57.916Z,15.47
2023-05-24T22:06:46.193Z,15.52
2023-05-24T22:09:34.180Z,15.61
2023-05-24T22:12:21.940Z,15.94
2023-05-24T22:15:10.561Z,15.58
2023-05-24T22:17:58.718Z,15.29
2023-05-24T22:20:48.492Z,15.21
2023-05-24T22:23:36.676Z,15.05
2023-05-24T22:26:24.407Z,15.18
2023-05-24T22:29:12.488Z,15.09
2023-05-24T22:32:00.231Z,15.18
2023-05-24T22:34:48.269Z,15.15
2023-05-24T22:37:37.911Z,14.97
2023-05-24T22:40:25.746Z,15.29
2023-05-24T22:43:13.594Z,15.09
2023-05-24T22:46:01.516Z,15.17
2023-05-24T22:48:52.238Z,15.02
2023-05-24T22:51:44.524Z,15.28
2023-05-24T22:54:33.725Z,15.21
2023-05-24T22:57:23.007Z,14.99
2023-05-24T23:00:12.129Z,15.08
2023-05-24T23:03:00.002Z,15.18
2023-05-24T23:05:47.716Z,14.95
2023-05-24T23:08:35.871Z,14.91
2023-05-24T23:11:26.424Z,14.89
2023-05-24T23:14:14.382Z,15.15
2023-05-24T23:17:02.809Z,15.12
2023-05-24T23:19:51.147Z,15.04
2023-05-24T23:22:39.123Z,14.66
2023-05-24T23:25:26.906Z,14.93
2023-05-24T23:28:15.947Z,14.71
2023-05-24T23:31:03.730Z,14.63
2023-05-24T23:33:52.235Z,14.66
2023-05-24T23:36:40.217Z,14.61
2023-05-24T23:39:28.067Z,14.62
2023-05-24T23:42:16.102Z,14.54
2023-05-24T23:45:05.877Z,14.89
2023-05-24T23:47:53.749Z,14.61
2023-05-24T23:50:53.003Z,15.14
2023-05-24T23:53:41.469Z,14.66
2023-05-24T23:56:29.261Z,14.47
2023-05-24T23:59:17.426Z,14.58
